sensor_id;sensor_type;location;lat;lon;timestamp;P1;durP1;ratioP1;P2;durP2;ratioP2
6638;SDS011;3355;52.882;8.430;2023-07-31T00:01:40;4.20;;;2.50;;
6638;SDS011;3355;52.882;8.430;2023-07-31T00:04:07;2.37;;;1.60;;
6638;SDS011;3355;52.882;8.430;2023-07-31T00:06:34;3.87;;;2.20;;
6638;SDS011;3355;52.882;8.430;2023-07-31T00:09:01;7.27;;;3.00;;
6638;SDS011;3355;52.882;8.430;2023-07-31T00:11:29;4.37;;;2.13;;
6638;SDS011;3355;52.882;8.430;2023-07-31T00:13:56;4.00;;;2.20;;
6638;SDS011;3355;52.882;8.430;2023-07-31T00:16:24;3.77;;;2.60;;
6638;SDS011;3355;52.882;8.430;2023-07-31T00:18:55;4.47;;;2.73;;
6638;SDS011;3355;52.882;8.430;2023-07-31T00:21:23;2.87;;;2.07;;
6638;SDS011;3355;52.882;8.430;2023-07-31T00:23:50;3.10;;;2.03;;
6638;SDS011;3355;52.882;8.430;2023-07-31T00:26:17;2.70;;;1.93;;
6638;SDS011;3355;52.882;8.430;2023-07-31T00:28:44;3.00;;;1.93;;
6638;SDS011;3355;52.882;8.430;2023-07-31T00:31:11;4.37;;;2.37;;
6638;SDS011;3355;52.882;8.430;2023-07-31T00:33:38;3.93;;;2.30;;
6638;SDS011;3355;52.882;8.430;2023-07-31T00:36:07;2.80;;;2.07;;
6638;SDS011;3355;52.882;8.430;2023-07-31T00:38:34;5.73;;;2.13;;
6638;SDS011;3355;52.882;8.430;2023-07-31T00:41:01;3.27;;;2.23;;
6638;SDS011;3355;52.882;8.430;2023-07-31T00:43:28;3.13;;;2.00;;
6638;SDS011;3355;52.882;8.430;2023-07-31T00:45:55;2.73;;;2.00;;
6638;SDS011;3355;52.882;8.430;2023-07-31T00:48:22;2.63;;;1.90;;
6638;SDS011;3355;52.882;8.430;2023-07-31T00:50:50;2.40;;;1.77;;
6638;SDS011;3355;52.882;8.430;2023-07-31T00:53:20;5.90;;;2.50;;
6638;SDS011;3355;52.882;8.430;2023-07-31T00:55:48;3.17;;;1.60;;
6638;SDS011;3355;52.882;8.430;2023-07-31T00:58:14;2.90;;;1.77;;
6638;SDS011;3355;52.882;8.430;2023-07-31T01:00:41;4.13;;;1.97;;
6638;SDS011;3355;52.882;8.430;2023-07-31T01:03:09;6.00;;;1.93;;
6638;SDS011;3355;52.882;8.430;2023-07-31T01:05:38;3.10;;;1.90;;
6638;SDS011;3355;52.882;8.430;2023-07-31T01:08:10;3.60;;;2.00;;
6638;SDS011;3355;52.882;8.430;2023-07-31T01:10:44;3.30;;;2.03;;
6638;SDS011;3355;52.882;8.430;2023-07-31T01:13:15;3.30;;;2.23;;
6638;SDS011;3355;52.882;8.430;2023-07-31T01:15:42;3.67;;;1.90;;
6638;SDS011;3355;52.882;8.430;2023-07-31T01:18:08;4.00;;;2.10;;
6638;SDS011;3355;52.882;8.430;2023-07-31T01:20:36;3.07;;;2.07;;
6638;SDS011;3355;52.882;8.430;2023-07-31T01:23:19;2.30;;;1.63;;
6638;SDS011;3355;52.882;8.430;2023-07-31T01:25:56;3.10;;;1.90;;
6638;SDS011;3355;52.882;8.430;2023-07-31T01:28:32;3.57;;;1.97;;
6638;SDS011;3355;52.882;8.430;2023-07-31T01:31:02;2.20;;;1.80;;
6638;SDS011;3355;52.882;8.430;2023-07-31T01:33:29;4.10;;;2.20;;
6638;SDS011;3355;52.882;8.430;2023-07-31T01:35:56;2.73;;;2.20;;
6638;SDS011;3355;52.882;8.430;2023-07-31T01:38:23;2.80;;;2.27;;
6638;SDS011;3355;52.882;8.430;2023-07-31T01:40:50;2.87;;;2.47;;
6638;SDS011;3355;52.882;8.430;2023-07-31T01:43:19;4.70;;;2.40;;
6638;SDS011;3355;52.882;8.430;2023-07-31T01:45:46;2.80;;;2.40;;
6638;SDS011;3355;52.882;8.430;2023-07-31T01:48:14;3.67;;;2.20;;
6638;SDS011;3355;52.882;8.430;2023-07-31T01:50:41;3.97;;;2.40;;
6638;SDS011;3355;52.882;8.430;2023-07-31T01:53:08;4.60;;;2.33;;
6638;SDS011;3355;52.882;8.430;2023-07-31T01:55:37;3.60;;;2.73;;
6638;SDS011;3355;52.882;8.430;2023-07-31T01:58:04;4.70;;;2.70;;
6638;SDS011;3355;52.882;8.430;2023-07-31T02:00:32;3.43;;;2.30;;
6638;SDS011;3355;52.882;8.430;2023-07-31T02:02:59;4.93;;;2.83;;
6638;SDS011;3355;52.882;8.430;2023-07-31T02:05:25;4.17;;;2.50;;
6638;SDS011;3355;52.882;8.430;2023-07-31T02:07:53;7.90;;;2.40;;
6638;SDS011;3355;52.882;8.430;2023-07-31T02:10:19;2.77;;;2.23;;
6638;SDS011;3355;52.882;8.430;2023-07-31T02:12:46;2.77;;;2.23;;
6638;SDS011;3355;52.882;8.430;2023-07-31T02:15:13;2.90;;;2.47;;
6638;SDS011;3355;52.882;8.430;2023-07-31T02:17:41;3.80;;;3.07;;
6638;SDS011;3355;52.882;8.430;2023-07-31T02:20:08;3.20;;;2.70;;
6638;SDS011;3355;52.882;8.430;2023-07-31T02:22:35;4.37;;;3.30;;
6638;SDS011;3355;52.882;8.430;2023-07-31T02:25:02;5.43;;;2.97;;
6638;SDS011;3355;52.882;8.430;2023-07-31T02:27:30;3.30;;;2.70;;
6638;SDS011;3355;52.882;8.430;2023-07-31T02:29:56;4.83;;;2.30;;
6638;SDS011;3355;52.882;8.430;2023-07-31T02:32:24;2.60;;;2.17;;
6638;SDS011;3355;52.882;8.430;2023-07-31T02:34:52;5.07;;;2.13;;
6638;SDS011;3355;52.882;8.430;2023-07-31T02:37:19;2.60;;;2.33;;
6638;SDS011;3355;52.882;8.430;2023-07-31T02:39:46;2.83;;;2.50;;
6638;SDS011;3355;52.882;8.430;2023-07-31T02:42:13;2.80;;;2.23;;
6638;SDS011;3355;52.882;8.430;2023-07-31T02:44:40;3.47;;;2.37;;
6638;SDS011;3355;52.882;8.430;2023-07-31T02:47:07;3.70;;;2.90;;
6638;SDS011;3355;52.882;8.430;2023-07-31T02:49:34;2.83;;;2.30;;
6638;SDS011;3355;52.882;8.430;2023-07-31T02:52:02;4.60;;;2.60;;
6638;SDS011;3355;52.882;8.430;2023-07-31T02:54:30;5.57;;;2.60;;
6638;SDS011;3355;52.882;8.430;2023-07-31T02:56:57;2.83;;;2.23;;
6638;SDS011;3355;52.882;8.430;2023-07-31T02:59:23;3.27;;;2.93;;
6638;SDS011;3355;52.882;8.430;2023-07-31T03:01:51;3.80;;;2.70;;
6638;SDS011;3355;52.882;8.430;2023-07-31T03:04:18;3.50;;;2.60;;
6638;SDS011;3355;52.882;8.430;2023-07-31T03:06:45;2.97;;;2.67;;
6638;SDS011;3355;52.882;8.430;2023-07-31T03:09:13;3.00;;;2.27;;
6638;SDS011;3355;52.882;8.430;2023-07-31T03:11:40;4.33;;;2.80;;
6638;SDS011;3355;52.882;8.430;2023-07-31T03:14:07;3.53;;;2.97;;
6638;SDS011;3355;52.882;8.430;2023-07-31T03:16:33;3.10;;;2.63;;
6638;SDS011;3355;52.882;8.430;2023-07-31T03:19:00;2.83;;;2.50;;
6638;SDS011;3355;52.882;8.430;2023-07-31T03:21:28;3.50;;;2.70;;
6638;SDS011;3355;52.882;8.430;2023-07-31T03:23:55;3.67;;;2.50;;
6638;SDS011;3355;52.882;8.430;2023-07-31T03:26:23;2.90;;;2.60;;
6638;SDS011;3355;52.882;8.430;2023-07-31T03:28:50;2.77;;;2.23;;
6638;SDS011;3355;52.882;8.430;2023-07-31T03:31:16;2.67;;;2.23;;
6638;SDS011;3355;52.882;8.430;2023-07-31T03:33:43;3.33;;;2.20;;
6638;SDS011;3355;52.882;8.430;2023-07-31T03:36:09;2.43;;;2.17;;
6638;SDS011;3355;52.882;8.430;2023-07-31T03:38:36;3.20;;;2.50;;
6638;SDS011;3355;52.882;8.430;2023-07-31T03:41:04;4.20;;;2.30;;
6638;SDS011;3355;52.882;8.430;2023-07-31T03:43:33;2.90;;;2.40;;
6638;SDS011;3355;52.882;8.430;2023-07-31T03:46:00;2.80;;;2.40;;
6638;SDS011;3355;52.882;8.430;2023-07-31T03:48:27;3.93;;;2.53;;
6638;SDS011;3355;52.882;8.430;2023-07-31T03:50:54;2.27;;;1.93;;
6638;SDS011;3355;52.882;8.430;2023-07-31T03:53:21;3.60;;;2.83;;
6638;SDS011;3355;52.882;8.430;2023-07-31T03:55:47;3.17;;;2.63;;
6638;SDS011;3355;52.882;8.430;2023-07-31T03:58:14;2.63;;;2.13;;
6638;SDS011;3355;52.882;8.430;2023-07-31T04:00:42;2.70;;;2.13;;
6638;SDS011;3355;52.882;8.430;2023-07-31T04:03:08;3.13;;;2.30;;
6638;SDS011;3355;52.882;8.430;2023-07-31T04:05:37;2.93;;;2.23;;
6638;SDS011;3355;52.882;8.430;2023-07-31T04:08:04;5.60;;;2.50;;
6638;SDS011;3355;52.882;8.430;2023-07-31T04:10:31;2.60;;;2.40;;
6638;SDS011;3355;52.882;8.430;2023-07-31T04:12:58;2.40;;;2.10;;
6638;SDS011;3355;52.882;8.430;2023-07-31T04:15:25;3.80;;;2.67;;
6638;SDS011;3355;52.882;8.430;2023-07-31T04:17:53;2.73;;;1.87;;
6638;SDS011;3355;52.882;8.430;2023-07-31T04:20:20;2.80;;;2.03;;
6638;SDS011;3355;52.882;8.430;2023-07-31T04:22:47;2.93;;;1.77;;
6638;SDS011;3355;52.882;8.430;2023-07-31T04:25:14;2.13;;;1.60;;
6638;SDS011;3355;52.882;8.430;2023-07-31T04:27:41;3.77;;;1.70;;
6638;SDS011;3355;52.882;8.430;2023-07-31T04:30:08;2.60;;;1.73;;
6638;SDS011;3355;52.882;8.430;2023-07-31T04:32:35;2.40;;;1.80;;
6638;SDS011;3355;52.882;8.430;2023-07-31T04:35:03;1.97;;;1.67;;
6638;SDS011;3355;52.882;8.430;2023-07-31T04:37:30;1.97;;;1.50;;
6638;SDS011;3355;52.882;8.430;2023-07-31T04:39:57;2.63;;;1.80;;
6638;SDS011;3355;52.882;8.430;2023-07-31T04:42:24;3.70;;;1.80;;
6638;SDS011;3355;52.882;8.430;2023-07-31T04:44:50;2.30;;;1.60;;
6638;SDS011;3355;52.882;8.430;2023-07-31T04:47:18;2.67;;;2.30;;
6638;SDS011;3355;52.882;8.430;2023-07-31T04:49:44;3.00;;;1.87;;
6638;SDS011;3355;52.882;8.430;2023-07-31T04:52:12;2.70;;;1.83;;
6638;SDS011;3355;52.882;8.430;2023-07-31T04:54:39;2.53;;;1.73;;
6638;SDS011;3355;52.882;8.430;2023-07-31T04:57:05;2.37;;;1.70;;
6638;SDS011;3355;52.882;8.430;2023-07-31T04:59:32;2.07;;;1.30;;
6638;SDS011;3355;52.882;8.430;2023-07-31T05:01:59;3.20;;;1.80;;
6638;SDS011;3355;52.882;8.430;2023-07-31T05:04:25;2.20;;;1.80;;
6638;SDS011;3355;52.882;8.430;2023-07-31T05:06:52;1.87;;;1.63;;
6638;SDS011;3355;52.882;8.430;2023-07-31T05:09:20;3.33;;;1.90;;
6638;SDS011;3355;52.882;8.430;2023-07-31T05:11:47;2.10;;;1.70;;
6638;SDS011;3355;52.882;8.430;2023-07-31T05:14:13;1.67;;;1.40;;
6638;SDS011;3355;52.882;8.430;2023-07-31T05:16:40;2.00;;;1.63;;
6638;SDS011;3355;52.882;8.430;2023-07-31T05:19:07;2.10;;;1.60;;
6638;SDS011;3355;52.882;8.430;2023-07-31T05:21:34;1.70;;;1.30;;
6638;SDS011;3355;52.882;8.430;2023-07-31T05:24:01;1.77;;;1.40;;
6638;SDS011;3355;52.882;8.430;2023-07-31T05:26:29;4.20;;;1.67;;
6638;SDS011;3355;52.882;8.430;2023-07-31T05:28:55;1.70;;;1.30;;
6638;SDS011;3355;52.882;8.430;2023-07-31T05:31:23;3.93;;;1.57;;
6638;SDS011;3355;52.882;8.430;2023-07-31T05:33:50;2.03;;;1.80;;
6638;SDS011;3355;52.882;8.430;2023-07-31T05:36:17;1.90;;;1.53;;
6638;SDS011;3355;52.882;8.430;2023-07-31T05:38:44;1.80;;;1.57;;
6638;SDS011;3355;52.882;8.430;2023-07-31T05:41:11;2.20;;;1.83;;
6638;SDS011;3355;52.882;8.430;2023-07-31T05:43:39;2.53;;;1.70;;
6638;SDS011;3355;52.882;8.430;2023-07-31T05:46:06;3.60;;;1.50;;
6638;SDS011;3355;52.882;8.430;2023-07-31T05:48:34;3.10;;;1.20;;
6638;SDS011;3355;52.882;8.430;2023-07-31T05:51:00;1.40;;;1.10;;
6638;SDS011;3355;52.882;8.430;2023-07-31T05:53:27;1.73;;;1.00;;
6638;SDS011;3355;52.882;8.430;2023-07-31T05:55:54;1.50;;;0.90;;
6638;SDS011;3355;52.882;8.430;2023-07-31T05:58:21;1.40;;;0.93;;
6638;SDS011;3355;52.882;8.430;2023-07-31T06:00:49;1.80;;;0.93;;
6638;SDS011;3355;52.882;8.430;2023-07-31T06:03:16;1.50;;;0.90;;
6638;SDS011;3355;52.882;8.430;2023-07-31T06:05:42;1.40;;;1.00;;
6638;SDS011;3355;52.882;8.430;2023-07-31T06:08:09;1.77;;;1.10;;
6638;SDS011;3355;52.882;8.430;2023-07-31T06:10:36;1.63;;;0.90;;
6638;SDS011;3355;52.882;8.430;2023-07-31T06:13:03;2.57;;;1.07;;
6638;SDS011;3355;52.882;8.430;2023-07-31T06:15:30;1.50;;;1.00;;
6638;SDS011;3355;52.882;8.430;2023-07-31T06:17:58;2.70;;;0.93;;
6638;SDS011;3355;52.882;8.430;2023-07-31T06:20:27;6.50;;;2.13;;
6638;SDS011;3355;52.882;8.430;2023-07-31T06:22:53;2.37;;;1.53;;
6638;SDS011;3355;52.882;8.430;2023-07-31T06:25:20;1.90;;;1.50;;
6638;SDS011;3355;52.882;8.430;2023-07-31T06:27:47;1.83;;;1.30;;
6638;SDS011;3355;52.882;8.430;2023-07-31T06:30:14;2.20;;;1.70;;
6638;SDS011;3355;52.882;8.430;2023-07-31T06:32:40;3.03;;;1.87;;
6638;SDS011;3355;52.882;8.430;2023-07-31T06:35:09;2.90;;;2.10;;
6638;SDS011;3355;52.882;8.430;2023-07-31T06:37:36;2.27;;;1.87;;
6638;SDS011;3355;52.882;8.430;2023-07-31T06:40:05;2.97;;;2.23;;
6638;SDS011;3355;52.882;8.430;2023-07-31T06:42:34;2.97;;;2.40;;
6638;SDS011;3355;52.882;8.430;2023-07-31T06:45:01;2.60;;;2.03;;
6638;SDS011;3355;52.882;8.430;2023-07-31T06:47:27;3.47;;;2.50;;
6638;SDS011;3355;52.882;8.430;2023-07-31T06:49:55;3.30;;;2.50;;
6638;SDS011;3355;52.882;8.430;2023-07-31T06:52:23;5.10;;;3.40;;
6638;SDS011;3355;52.882;8.430;2023-07-31T06:55:00;5.23;;;3.30;;
6638;SDS011;3355;52.882;8.430;2023-07-31T06:57:27;4.17;;;3.20;;
6638;SDS011;3355;52.882;8.430;2023-07-31T06:59:54;6.00;;;4.00;;
6638;SDS011;3355;52.882;8.430;2023-07-31T07:02:21;3.73;;;2.50;;
6638;SDS011;3355;52.882;8.430;2023-07-31T07:04:48;6.83;;;3.50;;
6638;SDS011;3355;52.882;8.430;2023-07-31T07:07:15;6.83;;;3.93;;
6638;SDS011;3355;52.882;8.430;2023-07-31T07:09:43;4.97;;;4.27;;
6638;SDS011;3355;52.882;8.430;2023-07-31T07:12:10;6.83;;;4.10;;
6638;SDS011;3355;52.882;8.430;2023-07-31T07:14:37;6.43;;;5.23;;
6638;SDS011;3355;52.882;8.430;2023-07-31T07:17:04;5.33;;;4.83;;
6638;SDS011;3355;52.882;8.430;2023-07-31T07:19:31;8.10;;;5.70;;
6638;SDS011;3355;52.882;8.430;2023-07-31T07:21:57;10.93;;;6.20;;
6638;SDS011;3355;52.882;8.430;2023-07-31T07:24:26;8.40;;;5.20;;
6638;SDS011;3355;52.882;8.430;2023-07-31T07:26:54;8.27;;;5.87;;
6638;SDS011;3355;52.882;8.430;2023-07-31T07:29:21;8.20;;;6.30;;
6638;SDS011;3355;52.882;8.430;2023-07-31T07:31:48;10.00;;;7.10;;
6638;SDS011;3355;52.882;8.430;2023-07-31T07:34:14;10.00;;;7.50;;
6638;SDS011;3355;52.882;8.430;2023-07-31T07:36:41;14.43;;;7.83;;
6638;SDS011;3355;52.882;8.430;2023-07-31T07:39:08;9.77;;;7.33;;
6638;SDS011;3355;52.882;8.430;2023-07-31T07:41:34;8.70;;;6.30;;
6638;SDS011;3355;52.882;8.430;2023-07-31T07:44:03;12.87;;;8.20;;
6638;SDS011;3355;52.882;8.430;2023-07-31T07:46:29;10.37;;;7.67;;
6638;SDS011;3355;52.882;8.430;2023-07-31T07:48:56;12.00;;;8.63;;
6638;SDS011;3355;52.882;8.430;2023-07-31T07:51:22;13.53;;;7.80;;
6638;SDS011;3355;52.882;8.430;2023-07-31T07:53:49;10.03;;;7.17;;
6638;SDS011;3355;52.882;8.430;2023-07-31T07:56:16;13.17;;;7.63;;
6638;SDS011;3355;52.882;8.430;2023-07-31T07:58:42;11.17;;;8.60;;
6638;SDS011;3355;52.882;8.430;2023-07-31T08:01:11;11.67;;;7.77;;
6638;SDS011;3355;52.882;8.430;2023-07-31T08:03:37;10.00;;;6.90;;
6638;SDS011;3355;52.882;8.430;2023-07-31T08:06:04;17.43;;;8.10;;
6638;SDS011;3355;52.882;8.430;2023-07-31T08:08:30;11.60;;;7.77;;
6638;SDS011;3355;52.882;8.430;2023-07-31T08:10:57;14.87;;;7.83;;
6638;SDS011;3355;52.882;8.430;2023-07-31T08:13:24;12.93;;;7.20;;
6638;SDS011;3355;52.882;8.430;2023-07-31T08:15:51;11.07;;;8.40;;
6638;SDS011;3355;52.882;8.430;2023-07-31T08:18:19;12.33;;;7.80;;
6638;SDS011;3355;52.882;8.430;2023-07-31T08:20:46;9.37;;;8.00;;
6638;SDS011;3355;52.882;8.430;2023-07-31T08:23:12;11.97;;;8.47;;
6638;SDS011;3355;52.882;8.430;2023-07-31T08:25:39;8.97;;;6.93;;
6638;SDS011;3355;52.882;8.430;2023-07-31T08:28:06;10.40;;;6.67;;
6638;SDS011;3355;52.882;8.430;2023-07-31T08:30:33;11.37;;;7.60;;
6638;SDS011;3355;52.882;8.430;2023-07-31T08:33:00;10.37;;;8.30;;
6638;SDS011;3355;52.882;8.430;2023-07-31T08:35:28;10.77;;;7.23;;
6638;SDS011;3355;52.882;8.430;2023-07-31T08:37:55;12.67;;;7.60;;
6638;SDS011;3355;52.882;8.430;2023-07-31T08:40:22;10.23;;;7.23;;
6638;SDS011;3355;52.882;8.430;2023-07-31T08:42:51;9.13;;;6.73;;
6638;SDS011;3355;52.882;8.430;2023-07-31T08:45:19;10.20;;;6.90;;
6638;SDS011;3355;52.882;8.430;2023-07-31T08:47:46;8.60;;;5.70;;
6638;SDS011;3355;52.882;8.430;2023-07-31T08:50:15;9.80;;;5.33;;
6638;SDS011;3355;52.882;8.430;2023-07-31T08:52:43;12.57;;;6.80;;
6638;SDS011;3355;52.882;8.430;2023-07-31T08:55:11;8.37;;;4.83;;
6638;SDS011;3355;52.882;8.430;2023-07-31T08:57:40;8.47;;;5.37;;
6638;SDS011;3355;52.882;8.430;2023-07-31T09:00:08;8.30;;;5.20;;
6638;SDS011;3355;52.882;8.430;2023-07-31T09:02:37;8.07;;;4.83;;
6638;SDS011;3355;52.882;8.430;2023-07-31T09:05:05;6.10;;;3.97;;
6638;SDS011;3355;52.882;8.430;2023-07-31T09:07:33;5.30;;;3.93;;
6638;SDS011;3355;52.882;8.430;2023-07-31T09:10:02;7.27;;;3.93;;
6638;SDS011;3355;52.882;8.430;2023-07-31T09:12:30;7.27;;;3.70;;
6638;SDS011;3355;52.882;8.430;2023-07-31T09:14:57;6.87;;;4.40;;
6638;SDS011;3355;52.882;8.430;2023-07-31T09:17:30;7.67;;;4.07;;
6638;SDS011;3355;52.882;8.430;2023-07-31T09:19:57;5.23;;;4.03;;
6638;SDS011;3355;52.882;8.430;2023-07-31T09:22:34;6.00;;;3.63;;
6638;SDS011;3355;52.882;8.430;2023-07-31T09:25:09;5.03;;;3.20;;
6638;SDS011;3355;52.882;8.430;2023-07-31T09:27:47;6.33;;;3.90;;
6638;SDS011;3355;52.882;8.430;2023-07-31T09:30:15;6.60;;;3.60;;
6638;SDS011;3355;52.882;8.430;2023-07-31T09:32:43;5.60;;;3.87;;
6638;SDS011;3355;52.882;8.430;2023-07-31T09:35:19;6.07;;;4.10;;
6638;SDS011;3355;52.882;8.430;2023-07-31T09:37:49;6.83;;;4.10;;
6638;SDS011;3355;52.882;8.430;2023-07-31T09:40:28;5.07;;;3.73;;
6638;SDS011;3355;52.882;8.430;2023-07-31T09:42:56;5.93;;;3.83;;
6638;SDS011;3355;52.882;8.430;2023-07-31T09:45:23;3.63;;;2.80;;
6638;SDS011;3355;52.882;8.430;2023-07-31T09:47:50;6.77;;;3.40;;
6638;SDS011;3355;52.882;8.430;2023-07-31T09:50:16;4.30;;;3.20;;
6638;SDS011;3355;52.882;8.430;2023-07-31T09:52:44;4.07;;;3.67;;
6638;SDS011;3355;52.882;8.430;2023-07-31T09:55:10;6.63;;;3.63;;
6638;SDS011;3355;52.882;8.430;2023-07-31T09:57:39;3.30;;;2.70;;
6638;SDS011;3355;52.882;8.430;2023-07-31T10:00:08;3.30;;;2.90;;
6638;SDS011;3355;52.882;8.430;2023-07-31T10:02:36;4.60;;;2.50;;
6638;SDS011;3355;52.882;8.430;2023-07-31T10:05:03;3.13;;;1.90;;
6638;SDS011;3355;52.882;8.430;2023-07-31T10:07:31;3.57;;;2.10;;
6638;SDS011;3355;52.882;8.430;2023-07-31T10:10:05;3.10;;;1.83;;
6638;SDS011;3355;52.882;8.430;2023-07-31T10:12:35;2.90;;;2.00;;
6638;SDS011;3355;52.882;8.430;2023-07-31T10:15:04;4.37;;;2.00;;
6638;SDS011;3355;52.882;8.430;2023-07-31T10:17:32;2.90;;;1.80;;
6638;SDS011;3355;52.882;8.430;2023-07-31T10:19:59;2.27;;;1.53;;
6638;SDS011;3355;52.882;8.430;2023-07-31T10:22:29;2.30;;;1.63;;
6638;SDS011;3355;52.882;8.430;2023-07-31T10:24:57;2.40;;;1.70;;
6638;SDS011;3355;52.882;8.430;2023-07-31T10:27:24;2.00;;;1.30;;
6638;SDS011;3355;52.882;8.430;2023-07-31T10:29:52;2.10;;;1.53;;
6638;SDS011;3355;52.882;8.430;2023-07-31T10:32:20;2.63;;;1.40;;
6638;SDS011;3355;52.882;8.430;2023-07-31T10:34:48;3.10;;;2.27;;
6638;SDS011;3355;52.882;8.430;2023-07-31T10:37:19;1.77;;;1.20;;
6638;SDS011;3355;52.882;8.430;2023-07-31T10:39:55;2.00;;;1.37;;
6638;SDS011;3355;52.882;8.430;2023-07-31T10:42:27;2.10;;;1.37;;
6638;SDS011;3355;52.882;8.430;2023-07-31T10:44:56;2.30;;;1.30;;
6638;SDS011;3355;52.882;8.430;2023-07-31T10:47:25;1.70;;;1.10;;
6638;SDS011;3355;52.882;8.430;2023-07-31T10:49:51;2.17;;;1.73;;
6638;SDS011;3355;52.882;8.430;2023-07-31T10:52:20;3.03;;;1.77;;
6638;SDS011;3355;52.882;8.430;2023-07-31T10:54:55;2.53;;;1.80;;
6638;SDS011;3355;52.882;8.430;2023-07-31T10:57:40;2.83;;;2.43;;
6638;SDS011;3355;52.882;8.430;2023-07-31T11:00:20;1.70;;;1.57;;
6638;SDS011;3355;52.882;8.430;2023-07-31T11:02:59;1.47;;;1.23;;
6638;SDS011;3355;52.882;8.430;2023-07-31T11:05:43;1.60;;;1.27;;
6638;SDS011;3355;52.882;8.430;2023-07-31T11:08:15;1.90;;;1.33;;
6638;SDS011;3355;52.882;8.430;2023-07-31T11:10:43;1.40;;;1.10;;
6638;SDS011;3355;52.882;8.430;2023-07-31T11:13:10;3.17;;;1.33;;
6638;SDS011;3355;52.882;8.430;2023-07-31T11:15:37;1.70;;;1.30;;
6638;SDS011;3355;52.882;8.430;2023-07-31T11:18:05;1.40;;;1.20;;
6638;SDS011;3355;52.882;8.430;2023-07-31T11:20:33;2.47;;;1.37;;
6638;SDS011;3355;52.882;8.430;2023-07-31T11:23:00;1.50;;;1.00;;
6638;SDS011;3355;52.882;8.430;2023-07-31T11:25:28;1.77;;;1.30;;
6638;SDS011;3355;52.882;8.430;2023-07-31T11:27:56;4.83;;;1.00;;
6638;SDS011;3355;52.882;8.430;2023-07-31T11:30:23;2.00;;;1.20;;
6638;SDS011;3355;52.882;8.430;2023-07-31T11:32:50;1.70;;;1.30;;
6638;SDS011;3355;52.882;8.430;2023-07-31T11:35:18;1.30;;;0.90;;
6638;SDS011;3355;52.882;8.430;2023-07-31T11:37:45;1.40;;;1.00;;
6638;SDS011;3355;52.882;8.430;2023-07-31T11:40:12;1.57;;;1.13;;
6638;SDS011;3355;52.882;8.430;2023-07-31T11:42:38;1.80;;;1.30;;
6638;SDS011;3355;52.882;8.430;2023-07-31T11:45:06;1.57;;;1.17;;
6638;SDS011;3355;52.882;8.430;2023-07-31T11:47:34;1.50;;;1.10;;
6638;SDS011;3355;52.882;8.430;2023-07-31T11:50:01;1.90;;;1.53;;
6638;SDS011;3355;52.882;8.430;2023-07-31T11:52:30;2.63;;;1.40;;
6638;SDS011;3355;52.882;8.430;2023-07-31T11:54:59;2.63;;;1.47;;
6638;SDS011;3355;52.882;8.430;2023-07-31T11:57:26;1.80;;;1.33;;
6638;SDS011;3355;52.882;8.430;2023-07-31T11:59:53;2.27;;;1.90;;
6638;SDS011;3355;52.882;8.430;2023-07-31T12:02:21;1.53;;;1.20;;
6638;SDS011;3355;52.882;8.430;2023-07-31T12:04:47;2.50;;;1.53;;
6638;SDS011;3355;52.882;8.430;2023-07-31T12:07:14;3.97;;;2.20;;
6638;SDS011;3355;52.882;8.430;2023-07-31T12:09:51;2.60;;;1.60;;
6638;SDS011;3355;52.882;8.430;2023-07-31T12:12:22;1.90;;;1.50;;
6638;SDS011;3355;52.882;8.430;2023-07-31T12:14:49;3.00;;;2.10;;
6638;SDS011;3355;52.882;8.430;2023-07-31T12:17:16;2.30;;;1.87;;
6638;SDS011;3355;52.882;8.430;2023-07-31T12:19:45;2.10;;;1.50;;
6638;SDS011;3355;52.882;8.430;2023-07-31T12:22:15;1.67;;;1.47;;
6638;SDS011;3355;52.882;8.430;2023-07-31T12:24:43;2.00;;;1.40;;
6638;SDS011;3355;52.882;8.430;2023-07-31T12:27:13;2.73;;;1.60;;
6638;SDS011;3355;52.882;8.430;2023-07-31T12:29:41;2.47;;;1.60;;
6638;SDS011;3355;52.882;8.430;2023-07-31T12:32:21;2.57;;;1.70;;
6638;SDS011;3355;52.882;8.430;2023-07-31T12:34:50;1.90;;;1.70;;
6638;SDS011;3355;52.882;8.430;2023-07-31T12:37:17;2.27;;;1.93;;
6638;SDS011;3355;52.882;8.430;2023-07-31T12:39:43;2.60;;;2.10;;
6638;SDS011;3355;52.882;8.430;2023-07-31T12:42:11;2.47;;;2.00;;
6638;SDS011;3355;52.882;8.430;2023-07-31T12:44:41;2.40;;;2.17;;
6638;SDS011;3355;52.882;8.430;2023-07-31T12:47:08;2.43;;;1.93;;
6638;SDS011;3355;52.882;8.430;2023-07-31T12:49:34;2.50;;;2.00;;
6638;SDS011;3355;52.882;8.430;2023-07-31T12:52:01;3.03;;;2.80;;
6638;SDS011;3355;52.882;8.430;2023-07-31T12:54:28;3.37;;;2.93;;
6638;SDS011;3355;52.882;8.430;2023-07-31T12:56:54;3.73;;;3.00;;
6638;SDS011;3355;52.882;8.430;2023-07-31T12:59:23;5.00;;;2.97;;
6638;SDS011;3355;52.882;8.430;2023-07-31T13:01:49;2.87;;;2.43;;
6638;SDS011;3355;52.882;8.430;2023-07-31T13:04:16;3.13;;;2.70;;
6638;SDS011;3355;52.882;8.430;2023-07-31T13:06:43;4.00;;;3.00;;
6638;SDS011;3355;52.882;8.430;2023-07-31T13:09:10;3.03;;;2.60;;
6638;SDS011;3355;52.882;8.430;2023-07-31T13:11:37;3.37;;;2.83;;
6638;SDS011;3355;52.882;8.430;2023-07-31T13:14:04;4.00;;;2.90;;
6638;SDS011;3355;52.882;8.430;2023-07-31T13:16:32;3.50;;;2.73;;
6638;SDS011;3355;52.882;8.430;2023-07-31T13:18:58;4.00;;;3.20;;
6638;SDS011;3355;52.882;8.430;2023-07-31T13:21:25;3.63;;;3.20;;
6638;SDS011;3355;52.882;8.430;2023-07-31T13:23:52;4.50;;;3.27;;
6638;SDS011;3355;52.882;8.430;2023-07-31T13:26:18;3.80;;;3.40;;
6638;SDS011;3355;52.882;8.430;2023-07-31T13:28:45;4.60;;;4.20;;
6638;SDS011;3355;52.882;8.430;2023-07-31T13:31:11;4.23;;;3.43;;
6638;SDS011;3355;52.882;8.430;2023-07-31T13:33:39;4.20;;;3.67;;
6638;SDS011;3355;52.882;8.430;2023-07-31T13:36:06;4.37;;;3.73;;
6638;SDS011;3355;52.882;8.430;2023-07-31T13:38:32;6.80;;;3.90;;
6638;SDS011;3355;52.882;8.430;2023-07-31T13:40:59;6.50;;;4.47;;
6638;SDS011;3355;52.882;8.430;2023-07-31T13:43:26;4.10;;;3.70;;
6638;SDS011;3355;52.882;8.430;2023-07-31T13:45:53;5.10;;;4.47;;
6638;SDS011;3355;52.882;8.430;2023-07-31T13:48:19;4.00;;;3.47;;
6638;SDS011;3355;52.882;8.430;2023-07-31T13:50:49;4.33;;;3.93;;
6638;SDS011;3355;52.882;8.430;2023-07-31T13:53:16;5.70;;;4.77;;
6638;SDS011;3355;52.882;8.430;2023-07-31T13:55:41;5.40;;;4.87;;
6638;SDS011;3355;52.882;8.430;2023-07-31T13:58:12;5.30;;;4.43;;
6638;SDS011;3355;52.882;8.430;2023-07-31T14:00:38;6.20;;;4.10;;
6638;SDS011;3355;52.882;8.430;2023-07-31T14:03:05;4.83;;;4.33;;
6638;SDS011;3355;52.882;8.430;2023-07-31T14:05:32;5.00;;;4.50;;
6638;SDS011;3355;52.882;8.430;2023-07-31T14:08:00;8.63;;;4.40;;
6638;SDS011;3355;52.882;8.430;2023-07-31T14:10:27;5.87;;;4.87;;
6638;SDS011;3355;52.882;8.430;2023-07-31T14:12:53;5.93;;;4.33;;
6638;SDS011;3355;52.882;8.430;2023-07-31T14:15:20;5.33;;;4.83;;
6638;SDS011;3355;52.882;8.430;2023-07-31T14:17:47;5.97;;;5.37;;
6638;SDS011;3355;52.882;8.430;2023-07-31T14:20:13;5.90;;;5.30;;
6638;SDS011;3355;52.882;8.430;2023-07-31T14:22:41;5.40;;;4.27;;
6638;SDS011;3355;52.882;8.430;2023-07-31T14:25:09;5.50;;;5.00;;
6638;SDS011;3355;52.882;8.430;2023-07-31T14:27:37;6.20;;;5.60;;
6638;SDS011;3355;52.882;8.430;2023-07-31T14:30:04;6.20;;;5.60;;
6638;SDS011;3355;52.882;8.430;2023-07-31T14:32:32;5.70;;;5.20;;
6638;SDS011;3355;52.882;8.430;2023-07-31T14:34:58;5.47;;;4.97;;
6638;SDS011;3355;52.882;8.430;2023-07-31T14:37:25;5.27;;;4.77;;
6638;SDS011;3355;52.882;8.430;2023-07-31T14:39:53;5.50;;;4.90;;
6638;SDS011;3355;52.882;8.430;2023-07-31T14:42:22;6.10;;;5.10;;
6638;SDS011;3355;52.882;8.430;2023-07-31T14:44:49;5.20;;;4.60;;
6638;SDS011;3355;52.882;8.430;2023-07-31T14:47:17;5.63;;;4.97;;
6638;SDS011;3355;52.882;8.430;2023-07-31T14:49:44;7.20;;;4.60;;
6638;SDS011;3355;52.882;8.430;2023-07-31T14:52:11;5.87;;;4.60;;
6638;SDS011;3355;52.882;8.430;2023-07-31T14:54:38;5.17;;;4.33;;
6638;SDS011;3355;52.882;8.430;2023-07-31T14:57:05;4.50;;;3.53;;
6638;SDS011;3355;52.882;8.430;2023-07-31T14:59:33;5.07;;;4.60;;
6638;SDS011;3355;52.882;8.430;2023-07-31T15:02:00;4.40;;;3.87;;
6638;SDS011;3355;52.882;8.430;2023-07-31T15:04:29;4.33;;;3.93;;
6638;SDS011;3355;52.882;8.430;2023-07-31T15:06:56;4.90;;;3.70;;
6638;SDS011;3355;52.882;8.430;2023-07-31T15:09:23;4.80;;;4.30;;
6638;SDS011;3355;52.882;8.430;2023-07-31T15:11:50;4.20;;;3.63;;
6638;SDS011;3355;52.882;8.430;2023-07-31T15:14:17;4.23;;;3.83;;
6638;SDS011;3355;52.882;8.430;2023-07-31T15:16:48;4.83;;;4.13;;
6638;SDS011;3355;52.882;8.430;2023-07-31T15:19:14;4.40;;;3.93;;